createdAt,value
2023-01-17T00:02:19.324Z,38.58
2023-01-17T00:05:05.749Z,43.50
2023-01-17T00:07:52.361Z,32.72
2023-01-17T00:10:22.385Z,55.53
2023-01-17T00:12:55.236Z,35.10
2023-01-17T00:15:26.251Z,41.78
2023-01-17T00:17:53.900Z,33.83
2023-01-17T00:20:42.562Z,36.90
2023-01-17T00:23:40.888Z,43.85
2023-01-17T00:26:19.176Z,36.33
2023-01-17T00:28:47.890Z,40.83
2023-01-17T00:31:16.447Z,39.28
2023-01-17T00:33:43.905Z,41.88
2023-01-17T00:36:11.970Z,34.72
2023-01-17T00:38:40.360Z,35.00
2023-01-17T00:41:13.266Z,31.15
2023-01-17T00:43:59.858Z,39.17
2023-01-17T00:46:46.105Z,37.08
2023-01-17T00:49:32.377Z,36.78
2023-01-17T00:52:18.112Z,38.88
2023-01-17T00:55:04.441Z,39.78
2023-01-17T00:57:50.347Z,45.92
2023-01-17T01:00:39.955Z,36.75
2023-01-17T01:03:29.857Z,37.78
2023-01-17T01:06:16.252Z,36.22
2023-01-17T01:09:02.015Z,37.08
2023-01-17T01:11:48.254Z,35.28
2023-01-17T01:14:33.987Z,31.02
2023-01-17T01:17:19.938Z,33.90
2023-01-17T01:20:05.813Z,30.60
2023-01-17T01:22:52.028Z,32.88
2023-01-17T01:25:38.024Z,34.33
2023-01-17T01:28:26.406Z,27.27
2023-01-17T01:31:12.121Z,28.73
2023-01-17T01:33:40.015Z,27.13
2023-01-17T01:36:08.954Z,28.33
2023-01-17T01:38:36.596Z,25.02
2023-01-17T01:41:04.555Z,24.60
2023-01-17T01:43:44.540Z,22.95
2023-01-17T01:46:25.841Z,23.12
2023-01-17T01:48:58.259Z,20.50
2023-01-17T01:51:30.023Z,22.35
2023-01-17T01:54:06.851Z,20.80
2023-01-17T01:56:36.415Z,22.55
2023-01-17T01:59:07.480Z,20.37
2023-01-17T02:01:36.129Z,24.70
2023-01-17T02:04:04.623Z,23.62
2023-01-17T02:07:10.336Z,25.45
2023-01-17T02:12:05.564Z,22.95
2023-01-17T02:14:32.954Z,20.02
2023-01-17T02:17:11.335Z,21.87
2023-01-17T02:19:50.584Z,25.33
2023-01-17T02:22:48.273Z,24.98
2023-01-17T02:25:36.685Z,24.87
2023-01-17T02:28:30.423Z,27.50
2023-01-17T02:31:04.919Z,28.30
2023-01-17T02:36:23.048Z,27.02
2023-01-17T02:39:03.037Z,26.20
2023-01-17T02:41:34.380Z,26.55
2023-01-17T02:44:02.902Z,26.30
2023-01-17T02:46:30.498Z,26.23
2023-01-17T02:48:58.347Z,27.98
2023-01-17T02:51:32.060Z,24.90
2023-01-17T02:54:17.976Z,26.48
2023-01-17T02:57:30.315Z,26.20
2023-01-17T03:00:00.193Z,26.73
2023-01-17T03:02:35.195Z,24.37
2023-01-17T03:05:10.810Z,23.87
2023-01-17T03:07:40.042Z,24.87
2023-01-17T03:10:08.481Z,25.73
2023-01-17T03:12:37.754Z,26.37
2023-01-17T03:15:12.916Z,22.87
2023-01-17T03:17:45.459Z,22.50
2023-01-17T03:20:13.278Z,24.27
2023-01-17T03:22:40.648Z,22.23
2023-01-17T03:25:08.229Z,21.10
2023-01-17T03:27:36.024Z,21.80
2023-01-17T03:30:04.607Z,19.87
2023-01-17T03:32:32.015Z,21.17
2023-01-17T03:34:59.686Z,25.12
2023-01-17T03:37:27.246Z,22.25
2023-01-17T03:39:55.008Z,20.80
2023-01-17T03:42:22.710Z,20.88
2023-01-17T03:44:50.063Z,18.65
2023-01-17T03:47:17.453Z,23.30
2023-01-17T03:49:45.203Z,19.20
2023-01-17T03:52:12.582Z,20.10
2023-01-17T03:54:39.986Z,15.90
2023-01-17T03:57:08.598Z,14.77
2023-01-17T03:59:35.966Z,14.85
2023-01-17T04:02:03.438Z,16.08
2023-01-17T04:04:31.179Z,13.70
2023-01-17T04:06:58.576Z,16.95
2023-01-17T04:09:25.952Z,15.02
2023-01-17T04:11:53.930Z,12.75
2023-01-17T04:14:21.358Z,11.95
2023-01-17T04:16:48.877Z,13.30
2023-01-17T04:19:17.365Z,13.88
2023-01-17T04:21:44.738Z,12.68
2023-01-17T04:24:12.139Z,14.87
2023-01-17T04:26:39.835Z,12.73
2023-01-17T04:29:07.203Z,12.27
2023-01-17T04:31:34.675Z,11.18
2023-01-17T04:34:03.059Z,13.73
2023-01-17T04:36:30.425Z,12.73
2023-01-17T04:38:57.807Z,12.23
2023-01-17T04:41:25.504Z,10.48
2023-01-17T04:43:52.899Z,9.80
2023-01-17T04:46:20.283Z,11.07
2023-01-17T04:48:48.874Z,9.70
2023-01-17T04:51:16.300Z,10.05
2023-01-17T04:53:43.749Z,9.15
2023-01-17T04:56:11.441Z,9.40
2023-01-17T04:58:38.855Z,8.40
2023-01-17T05:01:08.319Z,10.93
2023-01-17T05:03:36.350Z,9.45
2023-01-17T05:06:03.961Z,9.98
2023-01-17T05:08:31.499Z,9.30
2023-01-17T05:10:59.223Z,9.13
2023-01-17T05:13:26.724Z,10.68
2023-01-17T05:15:54.140Z,7.82
2023-01-17T05:18:21.879Z,6.90
2023-01-17T05:20:49.311Z,8.45
2023-01-17T05:23:16.869Z,7.62
2023-01-17T05:25:44.917Z,8.27
2023-01-17T05:28:13.213Z,9.95
2023-01-17T05:30:41.227Z,7.18
2023-01-17T05:33:10.315Z,8.02
2023-01-17T05:35:38.244Z,7.90
2023-01-17T05:38:05.696Z,7.28
2023-01-17T05:40:34.153Z,7.32
2023-01-17T05:43:03.869Z,8.73
2023-01-17T05:45:32.525Z,9.15
2023-01-17T05:48:00.648Z,7.32
2023-01-17T05:50:30.915Z,6.90
2023-01-17T05:53:00.569Z,9.75
2023-01-17T05:55:28.947Z,11.12
2023-01-17T05:57:57.740Z,7.90
2023-01-17T06:00:25.479Z,8.38
2023-01-17T06:02:57.317Z,8.23
2023-01-17T06:05:26.481Z,10.18
2023-01-17T06:07:54.838Z,9.35
2023-01-17T06:10:23.011Z,8.32
2023-01-17T06:13:00.719Z,10.32
2023-01-17T06:15:28.553Z,7.85
2023-01-17T06:17:56.220Z,12.07
2023-01-17T06:20:23.688Z,10.40
2023-01-17T06:22:51.444Z,8.88
2023-01-17T06:25:18.853Z,8.20
2023-01-17T06:27:46.350Z,8.02
2023-01-17T06:30:14.302Z,8.63
2023-01-17T06:32:41.695Z,9.98
2023-01-17T06:35:09.378Z,9.45
2023-01-17T06:37:37.516Z,9.45
2023-01-17T06:40:05.460Z,8.07
2023-01-17T06:42:32.817Z,10.07
2023-01-17T06:45:00.511Z,9.35
2023-01-17T06:47:27.967Z,12.35
2023-01-17T06:49:55.343Z,11.48
2023-01-17T06:52:23.032Z,10.70
2023-01-17T06:54:50.388Z,9.68
2023-01-17T06:57:17.731Z,12.48
2023-01-17T06:59:45.454Z,9.50
2023-01-17T07:02:12.874Z,9.80
2023-01-17T07:04:40.317Z,9.73
2023-01-17T07:07:08.170Z,9.23
2023-01-17T07:09:35.963Z,15.60
2023-01-17T07:12:03.728Z,10.10
2023-01-17T07:14:31.664Z,9.32
2023-01-17T07:16:59.165Z,9.50
2023-01-17T07:19:26.601Z,8.95
2023-01-17T07:21:54.445Z,7.85
2023-01-17T07:24:22.426Z,9.20
2023-01-17T07:26:51.002Z,6.32
2023-01-17T07:29:19.198Z,6.00
2023-01-17T07:31:48.841Z,8.02
2023-01-17T07:34:16.279Z,6.50
2023-01-17T07:36:44.013Z,5.97
2023-01-17T07:39:11.447Z,5.10
2023-01-17T07:41:41.478Z,4.93
2023-01-17T07:44:12.072Z,3.83
2023-01-17T07:46:40.184Z,4.50
2023-01-17T07:49:07.555Z,4.10
2023-01-17T07:51:35.293Z,3.37
2023-01-17T07:54:02.700Z,2.45
2023-01-17T07:56:30.075Z,4.47
2023-01-17T07:58:57.759Z,3.20
2023-01-17T08:01:25.258Z,2.45
2023-01-17T08:03:54.876Z,2.10
2023-01-17T08:06:24.809Z,1.73
2023-01-17T08:08:58.877Z,1.62
2023-01-17T08:11:26.897Z,1.62
2023-01-17T08:13:57.557Z,2.22
2023-01-17T08:16:25.284Z,2.22
2023-01-17T08:18:53.219Z,3.97
2023-01-17T08:21:20.607Z,3.20
2023-01-17T08:23:49.237Z,1.95
2023-01-17T08:26:24.132Z,2.97
2023-01-17T08:28:56.697Z,2.05
2023-01-17T08:31:24.662Z,1.45
2023-01-17T08:33:52.148Z,1.33
2023-01-17T08:36:19.621Z,2.28
2023-01-17T08:38:47.288Z,0.93
2023-01-17T08:41:14.782Z,1.42
2023-01-17T08:43:42.242Z,1.50
2023-01-17T08:46:09.965Z,5.87
2023-01-17T08:48:37.427Z,1.50
2023-01-17T08:51:05.118Z,3.47
2023-01-17T08:53:33.342Z,1.90
2023-01-17T08:56:02.094Z,1.42
2023-01-17T08:58:30.756Z,1.67
2023-01-17T09:01:06.180Z,1.65
2023-01-17T09:03:34.440Z,0.98
2023-01-17T09:06:06.842Z,0.90
2023-01-17T09:08:35.116Z,0.60
2023-01-17T09:11:11.286Z,0.80
2023-01-17T09:13:39.435Z,2.95
2023-01-17T09:16:08.011Z,2.40
2023-01-17T09:18:36.210Z,3.08
2023-01-17T09:21:17.012Z,2.95
2023-01-17T09:23:44.753Z,1.25
2023-01-17T09:26:26.295Z,1.85
2023-01-17T09:28:54.692Z,1.02
2023-01-17T09:31:23.049Z,1.67
2023-01-17T09:33:52.091Z,1.77
2023-01-17T09:36:20.656Z,0.60
2023-01-17T09:38:48.111Z,1.50
2023-01-17T09:41:31.385Z,1.33
2023-01-17T09:44:07.817Z,2.15
2023-01-17T09:46:42.653Z,1.40
2023-01-17T09:49:19.703Z,1.48
2023-01-17T09:51:48.655Z,0.98
2023-01-17T09:54:22.823Z,1.23
2023-01-17T09:57:13.444Z,0.40
2023-01-17T10:00:02.872Z,1.58
2023-01-17T10:02:58.653Z,0.90
2023-01-17T10:05:32.274Z,2.05
2023-01-17T10:08:33.428Z,3.37
2023-01-17T10:11:24.416Z,1.62
2023-01-17T10:13:54.928Z,4.62
2023-01-17T10:17:20.049Z,1.58
2023-01-17T10:20:17.771Z,1.67
2023-01-17T10:22:51.246Z,3.15
2023-01-17T10:25:43.016Z,1.45
2023-01-17T10:28:48.711Z,2.60
2023-01-17T10:31:23.315Z,3.50
2023-01-17T10:36:25.573Z,5.93
2023-01-17T10:38:56.213Z,22.08
2023-01-17T10:41:30.348Z,42.40
2023-01-17T10:44:06.254Z,8.10
2023-01-17T10:46:44.748Z,2.33
2023-01-17T10:49:18.061Z,0.85
2023-01-17T10:52:20.249Z,0.95
2023-01-17T10:55:06.130Z,1.80
2023-01-17T10:57:41.352Z,0.88
2023-01-17T11:00:32.144Z,4.70
2023-01-17T11:03:00.551Z,3.35
2023-01-17T11:05:32.840Z,4.68
2023-01-17T11:08:14.552Z,20.10
2023-01-17T11:10:50.310Z,2.35
2023-01-17T11:13:22.628Z,1.62
2023-01-17T11:15:52.754Z,0.85
2023-01-17T11:18:21.881Z,2.10
2023-01-17T11:20:49.923Z,1.90
2023-01-17T11:23:23.591Z,4.10
2023-01-17T11:25:58.160Z,1.10
2023-01-17T11:28:30.388Z,1.40
2023-01-17T11:30:59.991Z,1.73
2023-01-17T11:33:49.171Z,1.37
2023-01-17T11:36:28.909Z,2.40
2023-01-17T11:39:04.667Z,1.23
2023-01-17T11:41:36.272Z,2.15
2023-01-17T11:44:32.493Z,3.20
2023-01-17T11:47:11.774Z,1.08
2023-01-17T11:49:41.207Z,1.27
2023-01-17T11:52:18.220Z,2.58
2023-01-17T11:54:47.366Z,1.02
2023-01-17T11:57:24.448Z,1.17
2023-01-17T12:00:33.165Z,1.90
2023-01-17T12:03:39.711Z,1.75
2023-01-17T12:06:10.393Z,2.37
2023-01-17T12:09:05.555Z,2.53
2023-01-17T12:12:24.269Z,1.90
2023-01-17T12:15:20.263Z,2.50
2023-01-17T12:18:22.094Z,3.28
2023-01-17T12:20:57.819Z,3.67
2023-01-17T12:23:57.123Z,3.67
2023-01-17T12:26:38.171Z,2.05
2023-01-17T12:29:11.482Z,2.53
2023-01-17T12:31:43.195Z,3.60
2023-01-17T12:34:16.941Z,2.28
2023-01-17T12:36:53.489Z,3.25
2023-01-17T12:39:26.079Z,2.30
2023-01-17T12:42:01.109Z,2.83
2023-01-17T12:44:41.706Z,3.50
2023-01-17T12:47:09.495Z,2.28
2023-01-17T12:49:48.456Z,1.73
2023-01-17T12:52:32.078Z,2.22
2023-01-17T12:55:04.211Z,2.97
2023-01-17T12:57:35.397Z,2.83
2023-01-17T13:00:06.414Z,2.40
2023-01-17T13:03:02.192Z,2.35
2023-01-17T13:08:29.746Z,1.95
2023-01-17T13:11:20.210Z,1.98
2023-01-17T13:13:51.404Z,1.50
2023-01-17T13:16:27.578Z,2.10
2023-01-17T13:18:56.205Z,2.42
2023-01-17T13:21:31.870Z,4.43
2023-01-17T13:23:59.469Z,5.47
2023-01-17T13:26:48.813Z,4.40
2023-01-17T13:29:44.541Z,3.72
2023-01-17T13:32:45.654Z,2.62
2023-01-17T13:35:18.859Z,3.30
2023-01-17T13:37:59.839Z,5.05
2023-01-17T13:40:33.826Z,6.28
2023-01-17T13:43:03.521Z,7.85
2023-01-17T13:45:34.607Z,4.50
2023-01-17T13:48:18.158Z,6.30
2023-01-17T13:50:45.821Z,8.60
2023-01-17T13:53:32.250Z,4.12
2023-01-17T13:56:31.610Z,3.45
2023-01-17T13:59:04.993Z,3.75
2023-01-17T14:01:34.699Z,5.07
2023-01-17T14:04:07.258Z,7.03
2023-01-17T14:06:41.345Z,6.03
2023-01-17T14:09:38.503Z,7.12
2023-01-17T14:12:11.792Z,6.00
2023-01-17T14:14:42.806Z,7.70
2023-01-17T14:17:15.983Z,9.90
2023-01-17T14:19:48.177Z,9.75
2023-01-17T14:22:15.421Z,9.45
2023-01-17T14:25:01.050Z,7.85
2023-01-17T14:27:31.909Z,10.75
2023-01-17T14:30:00.497Z,6.32
2023-01-17T14:32:30.979Z,6.68
2023-01-17T14:34:58.779Z,7.07
2023-01-17T14:37:32.107Z,4.68
2023-01-17T14:40:00.834Z,6.22
2023-01-17T14:42:31.001Z,9.85
2023-01-17T14:45:04.977Z,6.62
2023-01-17T14:47:35.423Z,6.07
2023-01-17T14:50:17.836Z,6.50
2023-01-17T14:52:45.571Z,5.40
2023-01-17T14:55:19.766Z,6.60
2023-01-17T14:57:55.986Z,6.87
2023-01-17T15:00:25.359Z,5.53
2023-01-17T15:02:53.980Z,5.72
2023-01-17T15:05:23.953Z,6.93
2023-01-17T15:07:54.068Z,6.12
2023-01-17T15:10:30.924Z,6.95
2023-01-17T15:13:06.553Z,5.15
2023-01-17T15:15:38.460Z,7.30
2023-01-17T15:18:17.294Z,9.40
2023-01-17T15:21:06.534Z,7.00
2023-01-17T15:23:38.967Z,6.87
2023-01-17T15:26:08.414Z,9.73
2023-01-17T15:28:35.988Z,9.18
2023-01-17T15:31:05.156Z,8.02
2023-01-17T15:33:34.120Z,8.68
2023-01-17T15:36:03.618Z,15.95
2023-01-17T15:38:38.476Z,9.70
2023-01-17T15:41:11.619Z,7.80
2023-01-17T15:43:40.339Z,8.25
2023-01-17T15:46:21.083Z,7.82
2023-01-17T15:48:48.999Z,9.40
2023-01-17T15:51:30.263Z,8.95
2023-01-17T15:53:57.690Z,8.85
2023-01-17T15:56:32.093Z,8.70
2023-01-17T15:59:22.604Z,15.30
2023-01-17T16:01:57.686Z,13.13
2023-01-17T16:04:27.613Z,7.80
2023-01-17T16:06:54.997Z,9.48
2023-01-17T16:09:24.003Z,7.28
2023-01-17T16:11:51.596Z,7.22
2023-01-17T16:14:20.295Z,7.70
2023-01-17T16:16:52.354Z,8.05
2023-01-17T16:19:21.476Z,7.10
2023-01-17T16:21:48.997Z,6.85
2023-01-17T16:24:16.941Z,7.55
2023-01-17T16:26:44.609Z,6.30
2023-01-17T16:29:12.504Z,6.30
2023-01-17T16:31:40.510Z,6.82
2023-01-17T16:34:11.979Z,8.60
2023-01-17T16:36:39.463Z,6.97
2023-01-17T16:39:07.426Z,6.60
2023-01-17T16:41:35.300Z,7.20
2023-01-17T16:44:05.488Z,6.25
2023-01-17T16:46:33.205Z,6.55
2023-01-17T16:49:01.258Z,7.20
2023-01-17T16:51:28.859Z,7.22
2023-01-17T16:53:56.442Z,7.62
2023-01-17T16:56:24.192Z,6.93
2023-01-17T16:58:53.157Z,8.48
2023-01-17T17:01:22.993Z,9.02
2023-01-17T17:03:51.344Z,7.57
2023-01-17T17:06:19.548Z,9.93
2023-01-17T17:08:47.715Z,6.80
2023-01-17T17:11:18.399Z,8.38
2023-01-17T17:13:47.782Z,8.63
2023-01-17T17:16:26.556Z,8.98
2023-01-17T17:18:57.537Z,7.03
2023-01-17T17:21:26.770Z,5.60
2023-01-17T17:23:58.335Z,8.73
2023-01-17T17:26:29.020Z,8.70
2023-01-17T17:28:57.977Z,7.72
2023-01-17T17:31:27.178Z,9.68
2023-01-17T17:34:00.904Z,9.45
2023-01-17T17:36:30.268Z,8.05
2023-01-17T17:38:58.826Z,9.60
2023-01-17T17:41:29.136Z,10.77
2023-01-17T17:44:01.263Z,6.72
2023-01-17T17:46:29.707Z,8.75
2023-01-17T17:48:58.559Z,7.18
2023-01-17T17:51:32.899Z,9.43
2023-01-17T17:54:04.360Z,9.00
2023-01-17T17:56:34.006Z,9.30
2023-01-17T17:59:03.933Z,7.47
2023-01-17T18:01:33.044Z,9.15
2023-01-17T18:04:02.935Z,11.00
2023-01-17T18:06:31.412Z,7.95
2023-01-17T18:08:59.565Z,7.30
2023-01-17T18:11:29.879Z,6.82
2023-01-17T18:14:01.524Z,9.23
2023-01-17T18:16:35.827Z,9.93
2023-01-17T18:19:05.323Z,9.82
2023-01-17T18:21:38.421Z,12.45
2023-01-17T18:24:09.784Z,8.88
2023-01-17T18:26:39.312Z,16.67
2023-01-17T18:29:09.044Z,10.77
2023-01-17T18:31:37.791Z,9.88
2023-01-17T18:34:09.011Z,11.82
2023-01-17T18:36:39.566Z,9.85
2023-01-17T18:39:19.100Z,6.68
2023-01-17T18:41:49.791Z,5.53
2023-01-17T18:44:21.769Z,6.03
2023-01-17T18:46:53.201Z,6.47
2023-01-17T18:49:23.445Z,6.05
2023-01-17T18:51:53.083Z,6.53
2023-01-17T18:54:22.327Z,5.03
2023-01-17T18:56:51.507Z,6.28
2023-01-17T18:59:21.845Z,8.85
2023-01-17T19:01:51.193Z,9.90
2023-01-17T19:04:21.295Z,13.13
2023-01-17T19:06:50.483Z,6.37
2023-01-17T19:09:19.003Z,10.15
2023-01-17T19:11:48.137Z,13.27
2023-01-17T19:14:17.410Z,10.75
2023-01-17T19:16:46.828Z,7.32
2023-01-17T19:19:16.521Z,4.62
2023-01-17T19:21:45.583Z,7.20
2023-01-17T19:24:14.667Z,5.07
2023-01-17T19:26:45.035Z,6.85
2023-01-17T19:29:15.171Z,3.72
2023-01-17T19:31:44.137Z,3.87
2023-01-17T19:34:19.247Z,4.12
2023-01-17T19:36:48.905Z,6.10
2023-01-17T19:39:17.733Z,5.15
2023-01-17T19:41:49.702Z,14.43
2023-01-17T19:44:18.161Z,8.25
2023-01-17T19:46:47.788Z,92.57
2023-01-17T19:49:20.212Z,11.48
2023-01-17T19:51:49.894Z,15.90
2023-01-17T19:54:18.639Z,3.37
2023-01-17T19:56:47.945Z,9.25
2023-01-17T19:59:17.011Z,3.45
2023-01-17T20:01:46.100Z,2.42
2023-01-17T20:04:18.340Z,2.95
2023-01-17T20:06:47.085Z,3.35
2023-01-17T20:09:15.811Z,6.25
2023-01-17T20:11:47.076Z,13.73
2023-01-17T20:14:16.872Z,10.00
2023-01-17T20:16:47.792Z,7.10
2023-01-17T20:19:16.838Z,5.47
2023-01-17T20:21:46.712Z,6.78
2023-01-17T20:24:16.485Z,19.70
2023-01-17T20:26:47.120Z,7.87
2023-01-17T20:29:19.361Z,1.48
2023-01-17T20:31:52.757Z,1.25
2023-01-17T20:34:21.697Z,5.60
2023-01-17T20:36:55.308Z,4.10
2023-01-17T20:39:24.964Z,3.90
2023-01-17T20:41:56.213Z,3.70
2023-01-17T20:44:25.961Z,2.50
2023-01-17T20:46:54.221Z,1.40
2023-01-17T20:49:23.095Z,1.75
2023-01-17T20:51:51.374Z,1.37
2023-01-17T20:54:20.326Z,1.60
2023-01-17T20:56:48.823Z,0.80
2023-01-17T20:59:19.712Z,1.60
2023-01-17T21:01:51.831Z,1.55
2023-01-17T21:04:25.825Z,1.10
2023-01-17T21:06:54.753Z,1.20
2023-01-17T21:09:23.162Z,1.65
2023-01-17T21:11:51.890Z,0.90
2023-01-17T21:14:21.984Z,0.88
2023-01-17T21:16:50.449Z,1.15
2023-01-17T21:19:18.167Z,0.90
2023-01-17T21:21:46.367Z,1.75
2023-01-17T21:24:18.529Z,1.37
2023-01-17T21:26:47.149Z,1.67
2023-01-17T21:29:16.300Z,2.33
2023-01-17T21:31:45.172Z,2.42
2023-01-17T21:34:13.744Z,4.93
2023-01-17T21:36:42.328Z,2.62
2023-01-17T21:39:15.796Z,2.33
2023-01-17T21:41:46.765Z,1.50
2023-01-17T21:44:19.766Z,1.37
2023-01-17T21:46:48.386Z,2.15
2023-01-17T21:49:17.243Z,1.60
2023-01-17T21:51:53.982Z,1.67
2023-01-17T21:54:49.973Z,1.67
2023-01-17T21:57:38.309Z,3.78
2023-01-17T22:00:09.099Z,2.20
2023-01-17T22:02:39.927Z,3.28
2023-01-17T22:05:08.928Z,1.98
2023-01-17T22:07:38.990Z,1.98
2023-01-17T22:10:07.167Z,3.70
2023-01-17T22:12:35.016Z,6.10
2023-01-17T22:15:02.510Z,4.47
2023-01-17T22:17:30.714Z,3.08
2023-01-17T22:19:58.768Z,4.05
2023-01-17T22:22:26.291Z,3.67
2023-01-17T22:24:53.699Z,2.22
2023-01-17T22:27:21.405Z,3.45
2023-01-17T22:29:49.015Z,2.50
2023-01-17T22:32:16.442Z,4.32
2023-01-17T22:34:44.135Z,5.95
2023-01-17T22:37:11.537Z,5.20
2023-01-17T22:39:39.408Z,5.62
2023-01-17T22:42:08.471Z,3.05
2023-01-17T22:44:35.835Z,2.35
2023-01-17T22:47:03.516Z,3.08
2023-01-17T22:49:31.279Z,3.90
2023-01-17T22:51:58.892Z,2.80
2023-01-17T22:54:26.457Z,3.72
2023-01-17T22:56:54.252Z,7.30
2023-01-17T22:59:21.931Z,3.40
2023-01-17T23:01:49.307Z,2.03
2023-01-17T23:04:35.766Z,3.17
2023-01-17T23:07:03.385Z,3.53
2023-01-17T23:09:31.065Z,3.33
2023-01-17T23:11:58.624Z,3.87
2023-01-17T23:14:53.419Z,3.58
2023-01-17T23:17:42.135Z,4.75
2023-01-17T23:20:11.012Z,4.35
2023-01-17T23:22:38.688Z,4.43
2023-01-17T23:25:07.719Z,3.72
2023-01-17T23:27:56.663Z,4.25
2023-01-17T23:30:34.458Z,4.95
2023-01-17T23:33:04.521Z,6.32
2023-01-17T23:35:41.453Z,7.03
2023-01-17T23:38:29.605Z,5.43
2023-01-17T23:41:27.009Z,6.12
2023-01-17T23:43:56.389Z,5.32
2023-01-17T23:46:25.429Z,5.75
2023-01-17T23:48:53.092Z,7.25
2023-01-17T23:51:20.510Z,5.37
2023-01-17T23:53:48.220Z,5.53
2023-01-17T23:56:21.206Z,6.10
2023-01-17T23:58:49.013Z,5.18
